Time;durP1;ratioP1;P1;durP2;ratioP2;P2;SDS_P1;SDS_P2;PMS_P1;PMS_P2;Temp;Humidity;BMP_temperature;BMP_pressure;BME280_temperature;BME280_humidity;BME280_pressure;Samples;Min_cycle;Max_cycle;Signal;HPM_P1;HPM_P2
2021/08/24 00:00:12;;;;;;;;;;;;;;;18.82;100.00;100638.09;5052276;28;20018;-79
2021/08/24 00:02:40;;;;;;;;;;;;;;;19.00;100.00;100642.06;5055186;28;19963;-79
2021/08/24 00:05:18;;;;;;;;;;;;;;;18.82;100.00;100643.75;5054510;28;20071;-79
2021/08/24 00:07:45;;;;;;;;;;;;;;;19.03;100.00;100641.19;5055214;28;19925;-79
2021/08/24 00:10:13;;;;;;;;;;;;;;;18.85;100.00;100640.84;5053977;28;19925;-78
2021/08/24 00:12:40;;;;;;;;;;;;;;;18.83;100.00;100642.50;5054921;28;20012;-79
2021/08/24 00:15:09;;;;;;;;;;;;;;;18.55;100.00;100652.50;5070530;28;19931;-79
2021/08/24 00:17:36;;;;;;;;;;;;;;;18.82;100.00;100647.38;5053494;28;20338;-79
2021/08/24 00:20:03;;;;;;;;;;;;;;;18.78;100.00;100641.00;5053748;28;19924;-79
2021/08/24 00:22:30;;;;;;;;;;;;;;;18.57;100.00;100644.34;5054548;28;19935;-79
2021/08/24 00:24:58;;;;;;;;;;;;;;;18.06;100.00;100645.06;5054485;28;19930;-79
2021/08/24 00:27:26;;;;;;;;;;;;;;;17.86;100.00;100647.91;5047270;28;19925;-79
2021/08/24 00:30:00;;;;;;;;;;;;;;;17.53;100.00;100651.81;5084751;28;19928;-79
2021/08/24 00:32:29;;;;;;;;;;;;;;;18.09;100.00;100652.69;5054475;28;20292;-79
2021/08/24 00:34:56;;;;;;;;;;;;;;;18.18;100.00;100647.22;5054476;28;20018;-79
2021/08/24 00:37:24;;;;;;;;;;;;;;;18.45;100.00;100645.03;5053947;28;19924;-79
2021/08/24 00:39:51;;;;;;;;;;;;;;;18.24;100.00;100642.66;5054573;28;19924;-79
2021/08/24 00:42:20;;;;;;;;;;;;;;;17.80;100.00;100644.00;5053361;28;19967;-79
2021/08/24 00:44:50;;;;;;;;;;;;;;;17.61;100.00;100641.97;5054567;28;19925;-79
2021/08/24 00:47:23;;;;;;;;;;;;;;;18.20;100.00;100636.28;5053439;28;19925;-79
2021/08/24 00:49:50;;;;;;;;;;;;;;;18.31;100.00;100627.56;5053813;28;19925;-79
2021/08/24 00:52:19;;;;;;;;;;;;;;;18.33;100.00;100625.88;5053075;28;19925;-79
2021/08/24 00:54:49;;;;;;;;;;;;;;;18.36;100.00;100638.38;5053207;28;19924;-79
2021/08/24 00:57:20;;;;;;;;;;;;;;;18.08;100.00;100634.13;5054526;28;19978;-79
2021/08/24 00:59:48;;;;;;;;;;;;;;;18.32;100.00;100632.78;5053438;28;19983;-79
2021/08/24 01:02:16;;;;;;;;;;;;;;;18.52;100.00;100633.56;5054182;28;20381;-79
2021/08/24 01:04:45;;;;;;;;;;;;;;;18.02;100.00;100628.16;5054239;28;19925;-79
2021/08/24 01:07:20;;;;;;;;;;;;;;;18.23;100.00;100635.41;5053122;28;19931;-79
2021/08/24 01:09:53;;;;;;;;;;;;;;;17.98;100.00;100633.09;5053161;28;19924;-79
2021/08/24 01:12:39;;;;;;;;;;;;;;;18.16;100.00;100632.72;5054211;28;19924;-79
2021/08/24 01:15:25;;;;;;;;;;;;;;;18.37;100.00;100629.47;5054265;28;20006;-79
2021/08/24 01:17:56;;;;;;;;;;;;;;;18.26;100.00;100623.22;5069388;28;19935;-79
2021/08/24 01:20:29;;;;;;;;;;;;;;;17.91;100.00;100621.16;5052952;28;19924;-79
2021/08/24 01:23:15;;;;;;;;;;;;;;;18.11;100.00;100618.31;5053983;28;20441;-79
2021/08/24 01:26:00;;;;;;;;;;;;;;;17.71;100.00;100615.50;5052680;28;19925;-79
2021/08/24 01:28:34;;;;;;;;;;;;;;;17.59;100.00;100618.19;5054166;28;19928;-79
2021/08/24 01:31:20;;;;;;;;;;;;;;;17.61;100.00;100618.56;5069530;28;20268;-78
2021/08/24 01:33:56;;;;;;;;;;;;;;;18.04;100.00;100619.25;5042769;28;20410;-79
2021/08/24 01:36:30;;;;;;;;;;;;;;;18.28;100.00;100623.53;5053539;28;19933;-79
2021/08/24 01:39:06;;;;;;;;;;;;;;;18.38;100.00;100618.91;5053894;28;19971;-79
2021/08/24 01:42:02;;;;;;;;;;;;;;;18.61;100.00;100610.28;5053807;28;19925;-79
2021/08/24 01:44:32;;;;;;;;;;;;;;;18.82;100.00;100601.28;5040095;28;19932;-79
2021/08/24 01:47:03;;;;;;;;;;;;;;;18.39;100.00;100612.81;5053551;28;19931;-79
2021/08/24 01:49:44;;;;;;;;;;;;;;;18.39;100.00;100612.81;5052450;28;19925;-79
2021/08/24 01:52:13;;;;;;;;;;;;;;;18.65;100.00;100608.97;5053566;28;19925;-79
2021/08/24 01:54:45;;;;;;;;;;;;;;;18.76;100.00;100615.19;5052157;28;19971;-79
2021/08/24 01:57:17;;;;;;;;;;;;;;;18.75;100.00;100610.72;5053138;28;20005;-79
2021/08/24 01:59:53;;;;;;;;;;;;;;;18.88;100.00;100597.47;5053541;28;19932;-79
2021/08/24 02:02:26;;;;;;;;;;;;;;;18.42;100.00;100605.50;5068692;28;20016;-79
2021/08/24 02:04:57;;;;;;;;;;;;;;;18.58;100.00;100609.16;5053637;28;19978;-79
2021/08/24 02:07:30;;;;;;;;;;;;;;;18.27;100.00;100609.84;5068811;28;19925;-79
2021/08/24 02:09:59;;;;;;;;;;;;;;;18.09;100.00;100615.09;5052382;28;19932;-79
2021/08/24 02:12:30;;;;;;;;;;;;;;;18.05;100.00;100615.19;5085135;28;19925;-78
2021/08/24 02:14:59;;;;;;;;;;;;;;;17.86;100.00;100613.97;5052557;28;20425;-79
2021/08/24 02:17:27;;;;;;;;;;;;;;;18.12;100.00;100626.34;5053673;28;19924;-79
2021/08/24 02:20:01;;;;;;;;;;;;;;;18.10;100.00;100628.81;5053628;28;19925;-79
2021/08/24 02:22:31;;;;;;;;;;;;;;;17.87;100.00;100620.44;5053512;28;19932;-79
2021/08/24 02:25:07;;;;;;;;;;;;;;;18.33;100.00;100614.56;5039717;28;20050;-79
2021/08/24 02:27:37;;;;;;;;;;;;;;;18.49;100.00;100628.78;5051744;28;20013;-79
2021/08/24 02:30:04;;;;;;;;;;;;;;;18.59;100.00;100621.25;5052230;28;19952;-79
2021/08/24 02:32:34;;;;;;;;;;;;;;;18.56;100.00;100628.59;5053341;28;19925;-79
2021/08/24 02:35:07;;;;;;;;;;;;;;;18.61;100.00;100633.75;5035760;28;19929;-79
2021/08/24 02:37:40;;;;;;;;;;;;;;;18.51;100.00;100629.13;5052034;28;19963;-79
2021/08/24 02:40:11;;;;;;;;;;;;;;;18.32;100.00;100624.28;5053202;28;19963;-79
2021/08/24 02:42:44;;;;;;;;;;;;;;;18.29;100.00;100619.50;5052962;28;19925;-79
2021/08/24 02:45:14;;;;;;;;;;;;;;;18.03;100.00;100631.81;5051793;28;19925;-79
2021/08/24 02:47:42;;;;;;;;;;;;;;;18.06;100.00;100636.59;5052888;28;19925;-79
2021/08/24 02:50:11;;;;;;;;;;;;;;;18.04;100.00;100633.38;5053370;28;20364;-79
2021/08/24 02:52:38;;;;;;;;;;;;;;;18.05;100.00;100631.38;5053084;28;19924;-79
2021/08/24 02:55:07;;;;;;;;;;;;;;;18.22;100.00;100630.19;5051881;28;19967;-79
2021/08/24 02:57:35;;;;;;;;;;;;;;;18.27;100.00;100632.47;5051814;28;20016;-79
2021/08/24 03:00:03;;;;;;;;;;;;;;;18.24;100.00;100637.00;5052045;28;19925;-79
2021/08/24 03:02:31;;;;;;;;;;;;;;;18.20;100.00;100619.31;5056128;28;19947;-79
2021/08/24 03:04:58;;;;;;;;;;;;;;;18.05;100.00;100626.50;5071793;28;19977;-79
2021/08/24 03:07:29;;;;;;;;;;;;;;;17.84;100.00;100626.97;5056766;28;19925;-79
2021/08/24 03:09:59;;;;;;;;;;;;;;;17.94;100.00;100626.75;5056591;28;19952;-79
2021/08/24 03:12:34;;;;;;;;;;;;;;;17.92;100.00;100634.03;5088741;28;19931;-79
2021/08/24 03:15:15;;;;;;;;;;;;;;;17.71;100.00;100628.84;5072212;28;19932;-79
2021/08/24 03:17:46;;;;;;;;;;;;;;;17.70;100.00;100630.06;5056573;28;19929;-79
2021/08/24 03:20:15;;;;;;;;;;;;;;;17.81;100.00;100627.84;5088803;28;20006;-79
2021/08/24 03:22:43;;;;;;;;;;;;;;;17.53;100.00;100634.03;5056378;28;19951;-79
2021/08/24 03:25:11;;;;;;;;;;;;;;;17.52;100.00;100633.22;5054699;28;19948;-79
2021/08/24 03:27:40;;;;;;;;;;;;;;;17.66;100.00;100638.63;5056485;28;19935;-79
2021/08/24 03:30:13;;;;;;;;;;;;;;;17.83;100.00;100636.66;5071506;28;19928;-79
2021/08/24 03:32:41;;;;;;;;;;;;;;;17.74;100.00;100637.25;5088650;28;19932;-79
2021/08/24 03:35:09;;;;;;;;;;;;;;;17.52;100.00;100643.75;5054779;28;19925;-79
2021/08/24 03:37:36;;;;;;;;;;;;;;;17.76;100.00;100636.81;5056021;28;19925;-80
2021/08/24 03:40:04;;;;;;;;;;;;;;;17.94;100.00;100640.06;5071169;28;19925;-79
2021/08/24 03:42:31;;;;;;;;;;;;;;;17.37;100.00;100636.75;5056006;28;19931;-79
2021/08/24 03:44:59;;;;;;;;;;;;;;;17.68;100.00;100641.00;5071636;28;20247;-79
2021/08/24 03:47:26;;;;;;;;;;;;;;;17.53;100.00;100632.03;5056135;28;19925;-79
2021/08/24 03:49:53;;;;;;;;;;;;;;;17.82;100.00;100623.75;5054911;28;20030;-79
2021/08/24 03:52:20;;;;;;;;;;;;;;;17.16;100.00;100631.50;5087999;28;19933;-79
2021/08/24 03:54:47;;;;;;;;;;;;;;;17.53;100.00;100629.19;5087562;28;20354;-79
2021/08/24 03:57:14;;;;;;;;;;;;;;;17.51;100.00;100630.84;5053930;28;20406;-79
2021/08/24 03:59:41;;;;;;;;;;;;;;;17.74;100.00;100633.63;5054370;28;19925;-79
2021/08/24 04:02:08;;;;;;;;;;;;;;;17.46;100.00;100637.03;5055541;28;20023;-79
2021/08/24 04:04:35;;;;;;;;;;;;;;;17.54;100.00;100641.28;5055310;28;20414;-79
2021/08/24 04:07:02;;;;;;;;;;;;;;;17.70;100.00;100632.91;5054257;28;20375;-79
2021/08/24 04:09:29;;;;;;;;;;;;;;;17.88;100.00;100633.34;5053826;28;19929;-79
2021/08/24 04:11:56;;;;;;;;;;;;;;;17.61;100.00;100636.31;5070739;28;19925;-79
2021/08/24 04:14:23;;;;;;;;;;;;;;;17.48;100.00;100637.34;5055241;28;19931;-79
2021/08/24 04:16:50;;;;;;;;;;;;;;;17.61;100.00;100641.16;5055219;28;20043;-79
2021/08/24 04:19:17;;;;;;;;;;;;;;;17.52;100.00;100635.28;5054023;28;19932;-79
2021/08/24 04:21:45;;;;;;;;;;;;;;;17.66;100.00;100640.66;5055286;28;19925;-79
2021/08/24 04:24:12;;;;;;;;;;;;;;;17.89;100.00;100637.75;5070501;28;20283;-79
2021/08/24 04:26:39;;;;;;;;;;;;;;;18.03;100.00;100631.81;5069706;28;19929;-80
2021/08/24 04:29:06;;;;;;;;;;;;;;;17.70;100.00;100630.06;5054961;28;19928;-79
2021/08/24 04:31:38;;;;;;;;;;;;;;;17.54;100.00;100629.97;5054816;28;20396;-79
2021/08/24 04:34:05;;;;;;;;;;;;;;;17.85;100.00;100622.91;5055177;28;19924;-79
2021/08/24 04:36:35;;;;;;;;;;;;;;;17.77;100.00;100627.09;5086903;28;19925;-79
2021/08/24 04:39:03;;;;;;;;;;;;;;;17.91;100.00;100632.47;5054662;28;19924;-79
2021/08/24 04:41:31;;;;;;;;;;;;;;;18.01;100.00;100639.91;5053639;28;19956;-79
2021/08/24 04:43:59;;;;;;;;;;;;;;;18.02;100.00;100632.25;5054843;28;19968;-79
2021/08/24 04:46:26;;;;;;;;;;;;;;;17.80;100.00;100629.06;5053360;28;20470;-79
2021/08/24 04:48:53;;;;;;;;;;;;;;;17.67;100.00;100622.47;5086554;28;19928;-79
2021/08/24 04:51:21;;;;;;;;;;;;;;;17.47;100.00;100635.78;5054513;28;19925;-79
2021/08/24 04:53:48;;;;;;;;;;;;;;;17.69;100.00;100625.66;5053262;28;19932;-79
2021/08/24 04:56:15;;;;;;;;;;;;;;;17.89;100.00;100623.59;5054762;28;19932;-79
2021/08/24 04:58:43;;;;;;;;;;;;;;;17.95;100.00;100633.97;5053441;28;19925;-79
2021/08/24 05:01:10;;;;;;;;;;;;;;;17.70;100.00;100638.56;5086289;28;19936;-79
2021/08/24 05:03:37;;;;;;;;;;;;;;;17.69;100.00;100631.31;5054313;28;19929;-79
2021/08/24 05:06:05;;;;;;;;;;;;;;;17.71;100.00;100634.50;5054077;28;20058;-79
2021/08/24 05:11:49;;;;;;;;;;;;;;;17.35;100.00;100644.84;5054006;28;20353;-79
2021/08/24 05:14:16;;;;;;;;;;;;;;;17.59;100.00;100660.56;5054027;28;19924;-79
2021/08/24 05:16:56;;;;;;;;;;;;;;;17.83;100.00;100647.97;5052899;28;20281;-79
2021/08/24 05:19:25;;;;;;;;;;;;;;;17.85;100.00;100654.81;5054563;28;19924;-79
2021/08/24 05:21:52;;;;;;;;;;;;;;;17.85;100.00;100651.97;5053750;28;19929;-79
2021/08/24 05:24:20;;;;;;;;;;;;;;;17.92;100.00;100653.84;5053897;28;19929;-79
2021/08/24 05:26:47;;;;;;;;;;;;;;;17.99;100.00;100653.72;5053859;28;20295;-79
2021/08/24 05:29:16;;;;;;;;;;;;;;;18.04;100.00;100656.00;5036241;28;19987;-79
2021/08/24 05:31:43;;;;;;;;;;;;;;;18.09;100.00;100661.16;5052695;28;19925;-79
2021/08/24 05:34:11;;;;;;;;;;;;;;;18.03;100.00;100645.94;5053890;28;19928;-79
2021/08/24 05:36:38;;;;;;;;;;;;;;;17.88;100.00;100656.75;5038677;28;19925;-79
2021/08/24 05:39:05;;;;;;;;;;;;;;;17.59;100.00;100661.38;5049293;28;19975;-79
2021/08/24 05:41:32;;;;;;;;;;;;;;;17.77;100.00;100661.03;5066240;28;20288;-79
2021/08/24 05:43:59;;;;;;;;;;;;;;;17.87;100.00;100660.81;5065064;28;20037;-79
2021/08/24 05:46:27;;;;;;;;;;;;;;;17.70;100.00;100664.00;5044987;28;19929;-79
2021/08/24 05:48:54;;;;;;;;;;;;;;;17.98;100.00;100655.72;5053710;28;19931;-79
2021/08/24 05:51:22;;;;;;;;;;;;;;;18.19;100.00;100654.47;5053469;28;19924;-79
2021/08/24 05:53:51;;;;;;;;;;;;;;;18.19;100.00;100660.13;5068929;28;20030;-79
2021/08/24 05:56:20;;;;;;;;;;;;;;;18.05;100.00;100651.16;5052563;28;19951;-79
2021/08/24 05:58:48;;;;;;;;;;;;;;;18.05;100.00;100651.97;5053711;28;19936;-79
2021/08/24 06:01:19;;;;;;;;;;;;;;;17.78;100.00;100662.63;5078634;28;19926;-79
2021/08/24 06:03:46;;;;;;;;;;;;;;;17.91;100.00;100661.56;5033689;28;19979;-79
2021/08/24 06:06:20;;;;;;;;;;;;;;;17.71;100.00;100662.75;5032731;28;19929;-79
2021/08/24 06:08:48;;;;;;;;;;;;;;;17.18;100.00;100662.91;5049066;28;20304;-79
2021/08/24 06:11:20;;;;;;;;;;;;;;;17.62;100.00;100677.47;5051434;28;19932;-79
2021/08/24 06:13:47;;;;;;;;;;;;;;;17.52;100.00;100666.38;5052279;28;20403;-79
2021/08/24 06:16:16;;;;;;;;;;;;;;;17.20;100.00;100668.94;5052053;28;19925;-80
2021/08/24 06:18:43;;;;;;;;;;;;;;;17.46;100.00;100665.28;5051794;28;20214;-79
2021/08/24 06:21:11;;;;;;;;;;;;;;;17.15;100.00;100664.59;5052316;28;20334;-79
2021/08/24 06:23:38;;;;;;;;;;;;;;;17.63;100.00;100678.28;5053185;28;19932;-79
2021/08/24 06:26:05;;;;;;;;;;;;;;;17.37;100.00;100677.09;5053211;28;19956;-79
2021/08/24 06:28:32;;;;;;;;;;;;;;;17.34;100.00;100668.69;5035461;28;19925;-79
2021/08/24 06:31:00;;;;;;;;;;;;;;;17.71;100.00;100676.88;5053199;28;19925;-79
2021/08/24 06:33:30;;;;;;;;;;;;;;;17.88;100.00;100664.44;5052806;28;20011;-79
2021/08/24 06:35:58;;;;;;;;;;;;;;;18.10;100.00;100662.75;5053821;28;19932;-79
2021/08/24 06:38:25;;;;;;;;;;;;;;;17.76;100.00;100665.91;5055979;28;19959;-79
2021/08/24 06:40:52;;;;;;;;;;;;;;;17.91;100.00;100655.91;5055997;28;19929;-79
2021/08/24 06:43:20;;;;;;;;;;;;;;;17.67;100.00;100659.22;5072408;28;20093;-79
2021/08/24 06:45:47;;;;;;;;;;;;;;;18.05;100.00;100649.13;5089377;28;20425;-79
2021/08/24 06:48:14;;;;;;;;;;;;;;;18.16;100.00;100655.34;5072046;28;20001;-79
2021/08/24 06:50:41;;;;;;;;;;;;;;;18.13;100.00;100646.97;5055772;28;19964;-79
2021/08/24 06:53:09;;;;;;;;;;;;;;;18.39;100.00;100649.63;5056851;28;19955;-79
2021/08/24 06:55:38;;;;;;;;;;;;;;;18.37;100.00;100643.63;5056653;28;19931;-79
2021/08/24 06:58:07;;;;;;;;;;;;;;;18.63;100.00;100645.41;5056866;28;19925;-79
2021/08/24 07:00:35;;;;;;;;;;;;;;;18.81;100.00;100650.66;5056494;28;19925;-78
2021/08/24 07:03:05;;;;;;;;;;;;;;;18.93;100.00;100647.91;5071248;28;19931;-77
2021/08/24 07:05:33;;;;;;;;;;;;;;;18.82;100.00;100647.38;5056213;28;20380;-76
2021/08/24 07:08:00;;;;;;;;;;;;;;;18.34;100.00;100649.31;5055729;28;19995;-76
2021/08/24 07:10:28;;;;;;;;;;;;;;;18.24;100.00;100662.44;5077378;28;19925;-76
2021/08/24 07:12:55;;;;;;;;;;;;;;;18.22;100.00;100652.81;5050883;28;20354;-76
2021/08/24 07:15:23;;;;;;;;;;;;;;;17.94;100.00;100649.38;5054874;28;19924;-76
2021/08/24 07:17:55;;;;;;;;;;;;;;;18.04;100.00;100653.19;5055583;28;20019;-76
2021/08/24 07:20:23;;;;;;;;;;;;;;;17.76;100.00;100659.44;5056337;28;19924;-77
2021/08/24 07:22:58;;;;;;;;;;;;;;;17.56;100.00;100655.78;5054668;28;20269;-77
2021/08/24 07:25:26;;;;;;;;;;;;;;;17.57;100.00;100657.38;5055897;28;19928;-77
2021/08/24 07:27:53;;;;;;;;;;;;;;;18.37;100.00;100663.41;5055728;28;19928;-77
2021/08/24 07:30:21;;;;;;;;;;;;;;;18.02;100.00;100664.94;5055832;28;19925;-77
2021/08/24 07:32:49;;;;;;;;;;;;;;;17.94;100.00;100665.53;5086254;28;20019;-77
2021/08/24 07:35:18;;;;;;;;;;;;;;;18.29;100.00;100664.78;5055553;28;19932;-77
2021/08/24 07:37:45;;;;;;;;;;;;;;;18.68;100.00;100663.91;5054303;28;19924;-77
2021/08/24 07:40:12;;;;;;;;;;;;;;;18.75;100.00;100663.75;5054206;28;19924;-77
2021/08/24 07:42:40;;;;;;;;;;;;;;;18.52;100.00;100667.53;5088003;28;19925;-77
2021/08/24 07:45:08;;;;;;;;;;;;;;;18.79;100.00;100670.94;5055293;28;20408;-77
2021/08/24 07:47:35;;;;;;;;;;;;;;;18.89;100.00;100669.06;5053560;28;19932;-77
2021/08/24 07:50:03;;;;;;;;;;;;;;;18.31;100.00;100665.13;5055130;28;19932;-77
2021/08/24 07:52:31;;;;;;;;;;;;;;;18.54;100.00;100670.69;5054180;28;19928;-77
2021/08/24 07:54:58;;;;;;;;;;;;;;;18.32;100.00;100680.88;5055026;28;19925;-77
2021/08/24 07:57:25;;;;;;;;;;;;;;;18.83;100.00;100682.16;5055241;28;20502;-77
2021/08/24 07:59:52;;;;;;;;;;;;;;;18.98;100.00;100677.72;5054892;28;19933;-77
2021/08/24 08:02:19;;;;;;;;;;;;;;;18.97;100.00;100688.28;5053598;28;19925;-77
2021/08/24 08:04:46;;;;;;;;;;;;;;;18.78;100.00;100691.19;5055175;28;19925;-79
2021/08/24 08:07:14;;;;;;;;;;;;;;;18.67;100.00;100697.09;5070352;28;19929;-78
2021/08/24 08:09:42;;;;;;;;;;;;;;;18.92;100.00;100691.63;5055035;28;19956;-78
2021/08/24 08:12:10;;;;;;;;;;;;;;;18.94;100.00;100699.69;5053840;28;19932;-78
2021/08/24 08:14:37;;;;;;;;;;;;;;;18.51;100.00;100696.28;5053861;28;20422;-77
2021/08/24 08:17:10;;;;;;;;;;;;;;;18.84;100.00;100704.38;5054642;28;19925;-77
2021/08/24 08:19:38;;;;;;;;;;;;;;;18.57;100.00;100703.00;5054325;28;19963;-77
2021/08/24 08:22:06;;;;;;;;;;;;;;;18.62;100.00;100706.09;5049689;28;20356;-77
2021/08/24 08:24:33;;;;;;;;;;;;;;;18.71;100.00;100714.00;5044282;28;20386;-77
2021/08/24 08:27:00;;;;;;;;;;;;;;;19.02;100.00;100707.56;5054375;28;19935;-77
2021/08/24 08:29:28;;;;;;;;;;;;;;;18.63;100.00;100707.69;5053689;28;20375;-77
2021/08/24 08:32:04;;;;;;;;;;;;;;;18.73;100.00;100705.88;5086773;28;19925;-77
2021/08/24 08:34:31;;;;;;;;;;;;;;;18.40;100.00;100705.00;5050050;28;20383;-77
2021/08/24 08:36:59;;;;;;;;;;;;;;;18.59;100.00;100709.00;5053995;28;20437;-77
2021/08/24 08:39:26;;;;;;;;;;;;;;;18.80;100.00;100712.16;5054327;28;19925;-77
2021/08/24 08:42:05;;;;;;;;;;;;;;;18.67;100.00;100708.44;5053839;28;19931;-77
2021/08/24 08:44:52;;;;;;;;;;;;;;;18.51;100.00;100719.69;5053611;28;20363;-77
2021/08/24 08:47:19;;;;;;;;;;;;;;;18.68;100.00;100715.69;5052278;28;19924;-77
2021/08/24 08:50:06;;;;;;;;;;;;;;;18.76;100.00;100714.28;5053070;28;19948;-76
2021/08/24 08:52:33;;;;;;;;;;;;;;;18.37;100.00;100713.53;5052244;28;20277;-77
2021/08/24 08:55:08;;;;;;;;;;;;;;;18.16;100.00;100717.59;5053322;28;20356;-77
2021/08/24 08:57:39;;;;;;;;;;;;;;;18.10;100.00;100713.66;5063521;28;20427;-77
2021/08/24 09:00:09;;;;;;;;;;;;;;;18.37;100.00;100711.53;5047644;28;20020;-77
2021/08/24 09:02:44;;;;;;;;;;;;;;;18.66;100.00;100712.47;5053490;28;19924;-77
2021/08/24 09:05:13;;;;;;;;;;;;;;;18.77;100.00;100717.88;5053563;28;19932;-77
2021/08/24 09:07:45;;;;;;;;;;;;;;;19.18;100.00;100718.13;5082643;28;19929;-75
2021/08/24 09:10:17;;;;;;;;;;;;;;;19.21;100.00;100723.69;5053330;28;19924;-75
2021/08/24 09:12:47;;;;;;;;;;;;;;;19.06;100.00;100721.66;5052275;28;19925;-75
2021/08/24 09:15:20;;;;;;;;;;;;;;;18.97;100.00;100708.13;5053793;28;19925;-75
2021/08/24 09:17:49;;;;;;;;;;;;;;;19.22;100.00;100711.13;5086202;28;20355;-75
2021/08/24 09:20:26;;;;;;;;;;;;;;;19.56;100.00;100702.97;5053839;28;19925;-75
2021/08/24 09:22:53;;;;;;;;;;;;;;;19.31;100.00;100707.72;5053630;28;20366;-75
2021/08/24 09:25:41;;;;;;;;;;;;;;;19.60;100.00;100708.53;5052432;28;19924;-76
2021/08/24 09:28:25;;;;;;;;;;;;;;;19.55;100.00;100701.38;5052576;28;19925;-75
2021/08/24 09:30:52;;;;;;;;;;;;;;;19.49;100.00;100703.16;5053267;28;19925;-77
2021/08/24 09:33:20;;;;;;;;;;;;;;;19.25;100.00;100704.56;5051447;28;20031;-77
2021/08/24 09:35:47;;;;;;;;;;;;;;;19.53;100.00;100705.91;5051511;28;19933;-77
2021/08/24 09:38:18;;;;;;;;;;;;;;;19.67;100.00;100703.47;5050468;28;19967;-78
2021/08/24 09:40:50;;;;;;;;;;;;;;;19.85;100.00;100702.19;5077633;28;19975;-78
2021/08/24 09:43:28;;;;;;;;;;;;;;;20.21;100.00;100703.59;5047539;28;19925;-78
2021/08/24 09:45:55;;;;;;;;;;;;;;;20.25;100.00;100692.16;5053266;28;20383;-78
2021/08/24 09:48:23;;;;;;;;;;;;;;;20.42;100.00;100687.97;5053227;28;19929;-78
2021/08/24 09:50:50;;;;;;;;;;;;;;;20.37;100.00;100683.66;5052210;28;19967;-77
2021/08/24 09:53:24;;;;;;;;;;;;;;;20.52;100.00;100675.50;5053189;28;19952;-77
2021/08/24 09:55:52;;;;;;;;;;;;;;;20.02;100.00;100678.22;5053159;28;20059;-77
2021/08/24 09:58:30;;;;;;;;;;;;;;;20.33;100.00;100670.81;5053032;28;19924;-77
2021/08/24 10:01:02;;;;;;;;;;;;;;;20.19;100.00;100665.59;5041011;28;19925;-77
2021/08/24 10:03:42;;;;;;;;;;;;;;;20.15;100.00;100671.34;5053124;28;19928;-78
2021/08/24 10:06:24;;;;;;;;;;;;;;;20.12;100.00;100679.94;5053446;28;19994;-77
2021/08/24 10:08:55;;;;;;;;;;;;;;;19.67;100.00;100672.28;5051999;28;19924;-77
2021/08/24 10:11:28;;;;;;;;;;;;;;;19.90;100.00;100687.47;5071687;28;19925;-77
2021/08/24 10:14:07;;;;;;;;;;;;;;;19.49;100.00;100679.69;5056436;28;20003;-78
2021/08/24 10:16:37;;;;;;;;;;;;;;;19.57;100.00;100696.06;5056354;28;19929;-78
2021/08/24 10:19:08;;;;;;;;;;;;;;;19.42;100.00;100686.34;5039411;28;20264;-77
2021/08/24 10:21:37;;;;;;;;;;;;;;;19.50;100.00;100679.25;5057433;28;19924;-77
2021/08/24 10:24:07;;;;;;;;;;;;;;;19.64;100.00;100670.34;5057276;28;19925;-78
2021/08/24 10:26:37;;;;;;;;;;;;;;;20.17;100.00;100666.03;5056820;28;19975;-78
2021/08/24 10:29:11;;;;;;;;;;;;;;;20.48;100.00;100666.28;5057192;28;19929;-78
2021/08/24 10:31:40;;;;;;;;;;;;;;;20.77;100.00;100667.00;5057308;28;19925;-78
2021/08/24 10:34:13;;;;;;;;;;;;;;;20.32;100.00;100669.22;5057200;28;19924;-77
2021/08/24 10:36:45;;;;;;;;;;;;;;;20.08;100.00;100670.75;5085693;28;20320;-77
2021/08/24 10:39:26;;;;;;;;;;;;;;;20.35;100.00;100666.28;5054845;28;20006;-75
2021/08/24 10:42:04;;;;;;;;;;;;;;;19.93;100.00;100670.38;5050422;28;19963;-76
2021/08/24 10:44:41;;;;;;;;;;;;;;;20.22;100.00;100676.03;5055662;28;19970;-75
2021/08/24 10:47:17;;;;;;;;;;;;;;;19.90;100.00;100678.97;5056534;28;19931;-75
2021/08/24 10:49:44;;;;;;;;;;;;;;;19.31;100.00;100685.81;5056707;28;19924;-75
2021/08/24 10:52:29;;;;;;;;;;;;;;;19.52;100.00;100685.25;5056411;28;19928;-74
2021/08/24 10:55:05;;;;;;;;;;;;;;;19.78;100.00;100691.06;5054777;28;20414;-75
2021/08/24 10:57:55;;;;;;;;;;;;;;;19.23;100.00;100681.56;5056014;28;20008;-74
2021/08/24 11:00:23;;;;;;;;;;;;;;;19.58;100.00;100683.47;5079475;28;19932;-75
2021/08/24 11:02:59;;;;;;;;;;;;;;;19.33;100.00;100683.34;5088722;28;20384;-75
2021/08/24 11:05:36;;;;;;;;;;;;;;;18.99;100.00;100685.78;5071300;28;20445;-77
2021/08/24 11:08:13;;;;;;;;;;;;;;;19.13;100.00;100679.00;5056038;28;20422;-74
2021/08/24 11:11:03;;;;;;;;;;;;;;;19.60;100.00;100681.00;5056024;28;19924;-75
2021/08/24 11:13:40;;;;;;;;;;;;;;;19.95;100.00;100675.59;5054967;28;20380;-74
2021/08/24 11:16:25;;;;;;;;;;;;;;;20.73;100.00;100677.69;5054537;28;19928;-74
2021/08/24 11:19:07;;;;;;;;;;;;;;;21.00;100.00;100661.78;5054964;28;19978;-75
2021/08/24 11:21:40;;;;;;;;;;;;;;;20.73;100.00;100660.63;5055281;28;19987;-75
2021/08/24 11:24:16;;;;;;;;;;;;;;;21.07;100.00;100652.22;5055846;28;19979;-75
2021/08/24 11:26:55;;;;;;;;;;;;;;;21.39;100.00;100657.59;5055895;28;19925;-75
2021/08/24 11:29:41;;;;;;;;;;;;;;;21.66;100.00;100651.38;5049315;28;19929;-77
2021/08/24 11:32:28;;;;;;;;;;;;;;;21.38;100.00;100644.66;5051341;28;20388;-75
2021/08/24 11:34:59;;;;;;;;;;;;;;;21.65;100.00;100644.88;5044281;28;19925;-75
2021/08/24 11:37:29;;;;;;;;;;;;;;;21.64;100.00;100636.81;5053874;28;20307;-75
2021/08/24 11:40:06;;;;;;;;;;;;;;;21.79;100.00;100641.56;5050233;28;20237;-78
2021/08/24 11:42:41;;;;;;;;;;;;;;;22.02;100.00;100631.78;5050999;28;19925;-77
2021/08/24 11:45:18;;;;;;;;;;;;;;;22.60;100.00;100630.69;5053447;28;20384;-77
2021/08/24 11:47:52;;;;;;;;;;;;;;;21.81;100.00;100638.25;5060819;28;19968;-77
2021/08/24 11:50:39;;;;;;;;;;;;;;;22.16;100.00;100640.56;5050446;28;19933;-77
2021/08/24 11:53:12;;;;;;;;;;;;;;;22.36;100.00;100635.28;5054420;28;19982;-78
2021/08/24 11:55:42;;;;;;;;;;;;;;;22.70;100.00;100618.06;5052503;28;19925;-77
2021/08/24 11:58:47;;;;;;;;;;;;;;;23.32;100.00;100621.59;5087004;28;19932;-78
2021/08/24 12:01:17;;;;;;;;;;;;;;;22.26;100.00;100618.63;5018615;28;19933;-77
2021/08/24 12:03:56;;;;;;;;;;;;;;;22.22;100.00;100615.91;5009524;28;19926;-77
2021/08/24 12:06:29;;;;;;;;;;;;;;;21.50;100.00;100623.91;5013027;28;19930;-77
2021/08/24 12:08:58;;;;;;;;;;;;;;;22.03;100.00;100628.47;5011763;28;19926;-77
2021/08/24 12:11:40;;;;;;;;;;;;;;;22.39;100.00;100622.16;5010039;28;19933;-78
2021/08/24 12:14:25;;;;;;;;;;;;;;;22.63;100.00;100623.25;5005123;28;20428;-78
2021/08/24 12:16:55;;;;;;;;;;;;;;;22.74;100.00;100610.19;4995047;28;19929;-78
2021/08/24 12:19:24;;;;;;;;;;;;;;;22.64;100.00;100617.09;5004760;28;19929;-78
2021/08/24 12:21:54;;;;;;;;;;;;;;;22.65;100.00;100613.00;5000420;28;20297;-78
2021/08/24 12:24:23;;;;;;;;;;;;;;;22.99;100.00;100615.63;5009673;28;20016;-78
2021/08/24 12:26:51;;;;;;;;;;;;;;;22.55;100.00;100619.91;4993930;28;19926;-77
2021/08/24 12:29:36;;;;;;;;;;;;;;;21.55;100.00;100611.94;4995478;28;19925;-77
2021/08/24 12:32:04;;;;;;;;;;;;;;;21.90;100.00;100619.19;5029653;28;19925;-78
2021/08/24 12:34:34;;;;;;;;;;;;;;;22.00;100.00;100623.69;5047789;28;20395;-75
2021/08/24 12:37:03;;;;;;;;;;;;;;;22.29;100.00;100607.09;5053223;28;19932;-77
2021/08/24 12:39:34;;;;;;;;;;;;;;;22.31;100.00;100615.97;5054834;28;20002;-76
2021/08/24 12:42:19;;;;;;;;;;;;;;;22.15;100.00;100613.34;5037011;28;19970;-76
2021/08/24 12:44:48;;;;;;;;;;;;;;;22.43;100.00;100611.44;5049757;28;20016;-75
2021/08/24 12:47:28;;;;;;;;;;;;;;;22.72;100.00;100609.03;5050460;28;20398;-76
2021/08/24 12:50:15;;;;;;;;;;;;;;;23.18;100.00;100605.06;5064230;28;19999;-76